This is the latest recevied weather packets stored in our database for station/object W5MAI. If no packets are shown the sender has not sent any weather packets the latest 10 day(s).
| Time | Temp. | Humidity | Pressure | Rain* | Wind** | Luminosity | Snow |
|---|---|---|---|---|---|---|---|
| 1777643658 | 15° C | 96% | 1014.6 hPa | 2.54 mm | - | 65 W/m² | - |
| 1777643016 | 15° C | 96% | 1015.4 hPa | 2.79 mm | - | 28 W/m² | - |
| 1777642446 | 15° C | 96% | 1014.8 hPa | 2.54 mm | - | 19 W/m² | - |
| 1777641863 | 15.56° C | 95% | 1015.1 hPa | 1.52 mm | - | 5 W/m² | - |
| 1777640625 | 15.56° C | 95% | 1015.9 hPa | 1.02 mm | - | 0 W/m² | - |
| 1777640054 | 15.56° C | 95% | 1014.5 hPa | 0.25 mm | - | 5 W/m² | - |
| 1777639408 | 15.56° C | 95% | 1014.8 hPa | 0.25 mm | - | 0 W/m² | - |
| 1777638840 | 15.56° C | 96% | 1014.4 hPa | 0.76 mm | - | 0 W/m² | - |
| 1777638262 | 15.56° C | 96% | 1014 hPa | 1.27 mm | - | 5 W/m² | - |
| 1777637624 | 15.56° C | 95% | 1013.9 hPa | 1.52 mm | - | 7 W/m² | - |
| 1777637044 | 15.56° C | 96% | 1014.1 hPa | 2.03 mm | - | 0 W/m² | - |
| 1777636411 | 15.56° C | 95% | 1013.9 hPa | 2.54 mm | - | 0 W/m² | - |
| 1777635823 | 15.56° C | 95% | 1013.3 hPa | 3.05 mm | - | 0 W/m² | - |
| 1777635252 | 15.56° C | 95% | 1011.8 hPa | 6.1 mm | - | 0 W/m² | - |
| 1777634030 | 15.56° C | 95% | 1013.1 hPa | 6.1 mm | - | 0 W/m² | - |
| 1777633454 | 15.56° C | 95% | 1012.6 hPa | 5.59 mm | - | 0 W/m² | - |
| 1777632860 | 15.56° C | 95% | 1013.6 hPa | 5.59 mm | - | 0 W/m² | - |
| 1777631604 | 16.11° C | 95% | 1015.3 hPa | 2.54 mm | - | 0 W/m² | - |
| 1777629827 | 16.11° C | 95% | 1013.4 hPa | 4.06 mm | - | 0 W/m² | - |
| 1777629261 | 16.11° C | 95% | 1012.7 hPa | 3.81 mm | - | 0 W/m² | - |
| 1777628616 | 16.11° C | 95% | 1013.3 hPa | 3.56 mm | - | 0 W/m² | - |
| 1777628034 | 16.11° C | 95% | 1012.6 hPa | 2.79 mm | - | 0 W/m² | - |
| 1777627457 | 16.11° C | 95% | 1013.1 hPa | 1.27 mm | - | 0 W/m² | - |
| 1777626819 | 16.67° C | 95% | 1013.9 hPa | 1.27 mm | - | 0 W/m² | - |
| 1777626240 | 16.67° C | 95% | 1013.6 hPa | 1.78 mm | - | 0 W/m² | - |
* Rain latest hour (hover to see other rain measurements)
** Current wind speed in m/s (hover to see current wind gust speed)